Time;durP1;ratioP1;P1;durP2;ratioP2;P2;SDS_P1;SDS_P2;PMS_P1;PMS_P2;Temp;Humidity;BMP_temperature;BMP_pressure;BME280_temperature;BME280_humidity;BME280_pressure;Samples;Min_cycle;Max_cycle;Signal;HPM_P1;HPM_P2
2021/12/29 01:50:19;;;;;;;34.23;19.00;;;10.20;7.80;;;;;;6176494;22;1202591;-57
2021/12/29 01:52:53;;;;;;;53.00;22.10;;;9.90;1.00;;;;;;6214166;23;20186;-56
2021/12/29 01:55:19;;;;;;;40.63;23.00;;;8.80;1.00;;;;;;6209644;23;20392;-56
2021/12/29 01:57:45;;;;;;;45.50;24.30;;;7.50;1.00;;;;;;6210584;23;20361;-56
2021/12/29 02:00:16;;;;;;;50.63;24.43;;;6.60;12.30;;;;;;6210245;23;20213;-55
2021/12/29 02:02:42;;;;;;;58.57;28.57;;;5.90;99.90;;;;;;6183678;23;20693;-55
2021/12/29 02:05:08;;;;;;;49.17;26.20;;;5.30;1.00;;;;;;6210263;23;20365;-55
2021/12/29 02:07:34;;;;;;;47.90;24.73;;;4.80;99.90;;;;;;6210451;23;20476;-54
2021/12/29 02:09:59;;;;;;;46.80;24.10;;;4.50;1.00;;;;;;6209752;23;20867;-55
2021/12/29 02:12:25;;;;;;;54.40;24.03;;;4.30;99.90;;;;;;6208973;23;20170;-55
2021/12/29 02:14:51;;;;;;;50.17;23.47;;;4.10;1.00;;;;;;6212179;23;20540;-54
2021/12/29 02:17:16;;;;;;;47.50;24.50;;;4.00;1.00;;;;;;6212459;23;20146;-56
2021/12/29 02:19:46;;;;;;;53.70;24.20;;;3.90;1.00;;;;;;6211832;23;20153;-55
2021/12/29 02:22:25;;;;;;;47.13;22.10;;;3.80;1.00;;;;;;6211028;23;20158;-55
2021/12/29 02:24:55;;;;;;;54.50;23.07;;;3.70;1.00;;;;;;6211667;23;20365;-55
2021/12/29 02:27:21;;;;;;;58.17;22.60;;;3.60;5.10;;;;;;6213132;23;20365;-55
2021/12/29 02:29:50;;;;;;;43.90;21.63;;;3.50;99.90;;;;;;6212356;23;20385;-55
2021/12/29 02:32:16;;;;;;;58.87;25.00;;;3.40;1.00;;;;;;6210762;23;20813;-56
2021/12/29 02:34:41;;;;;;;92.47;24.00;;;3.30;1.00;;;;;;6210700;23;20369;-55
2021/12/29 02:37:07;;;;;;;71.07;22.27;;;3.30;99.90;;;;;;6212181;23;20154;-58
2021/12/29 02:39:37;;;;;;;61.80;23.03;;;3.30;1.00;;;;;;6211702;23;20147;-55
2021/12/29 02:42:06;;;;;;;66.67;22.90;;;3.20;1.00;;;;;;6212012;23;20663;-55
2021/12/29 02:44:39;;;;;;;62.17;20.33;;;3.20;1.00;;;;;;6211512;23;20693;-56
2021/12/29 02:47:05;;;;;;;64.87;23.77;;;3.20;1.00;;;;;;6210983;23;20415;-57
2021/12/29 02:49:31;;;;;;;64.00;23.20;;;3.10;1.00;;;;;;6212422;23;20369;-55
2021/12/29 02:51:57;;;;;;;50.97;21.73;;;3.10;99.90;;;;;;6211237;23;20437;-54
2021/12/29 02:54:23;;;;;;;48.50;22.47;;;3.10;99.90;;;;;;6211225;23;20384;-55
2021/12/29 02:56:54;;;;;;;61.63;22.23;;;3.10;99.90;;;;;;6211740;23;20147;-56
2021/12/29 02:59:21;;;;;;;54.07;23.30;;;3.00;99.90;;;;;;6211695;23;20499;-55
2021/12/29 03:01:47;;;;;;;86.80;24.33;;;3.00;1.00;;;;;;6210853;23;20480;-55
2021/12/29 03:04:13;;;;;;;54.93;20.63;;;3.00;1.00;;;;;;6211576;23;20694;-55
2021/12/29 03:06:39;;;;;;;58.67;22.87;;;2.90;1.00;;;;;;6211466;23;20381;-55
2021/12/29 03:09:07;;;;;;;76.53;24.53;;;3.00;1.00;;;;;;6211941;23;20143;-58
2021/12/29 03:11:33;;;;;;;71.60;25.10;;;3.00;99.90;;;;;;6211077;23;20399;-56
2021/12/29 03:13:59;;;;;;;60.67;22.80;;;3.00;99.90;;;;;;6211363;23;20508;-56
2021/12/29 03:16:25;;;;;;;54.63;21.93;;;2.90;1.00;;;;;;6212175;23;20209;-55
2021/12/29 03:18:50;;;;;;;73.23;22.53;;;2.90;1.00;;;;;;6212407;23;20146;-56
2021/12/29 03:21:17;;;;;;;62.17;24.93;;;2.90;1.00;;;;;;6210964;23;20889;-55
2021/12/29 03:23:42;;;;;;;74.97;23.57;;;2.90;1.00;;;;;;6211904;23;20151;-55
2021/12/29 03:26:08;;;;;;;62.50;22.73;;;2.90;1.00;;;;;;6210135;23;20469;-55
2021/12/29 03:28:35;;;;;;;61.57;22.40;;;2.90;1.00;;;;;;6211820;23;20592;-56
2021/12/29 03:31:00;;;;;;;69.00;22.60;;;2.80;1.00;;;;;;6211920;23;20154;-55
2021/12/29 03:33:28;;;;;;;95.60;24.50;;;2.80;1.00;;;;;;6209792;23;20443;-55
2021/12/29 03:36:01;;;;;;;84.03;23.57;;;2.80;1.00;;;;;;6211327;23;20182;-55
2021/12/29 03:38:29;;;;;;;69.40;25.80;;;2.80;1.00;;;;;;6212044;23;20370;-55
2021/12/29 03:40:58;;;;;;;66.20;23.00;;;2.80;1.00;;;;;;6210502;23;20393;-56
2021/12/29 03:43:24;;;;;;;62.87;22.63;;;2.80;1.00;;;;;;6211827;23;20390;-56
2021/12/29 03:45:51;;;;;;;75.73;24.57;;;2.80;1.00;;;;;;6211018;23;20380;-56
2021/12/29 03:48:19;;;;;;;70.30;24.23;;;2.70;1.00;;;;;;6211201;23;20362;-56
2021/12/29 03:50:46;;;;;;;58.47;21.87;;;2.70;1.00;;;;;;6186158;23;20507;-55
2021/12/29 03:53:14;;;;;;;56.83;22.07;;;2.70;1.00;;;;;;6210599;23;20422;-57
2021/12/29 03:55:41;;;;;;;59.13;22.90;;;2.70;10.50;;;;;;6211855;23;20394;-56
2021/12/29 03:58:07;;;;;;;54.83;23.87;;;2.70;24.80;;;;;;6210627;23;20392;-55
2021/12/29 04:00:33;;;;;;;54.90;23.83;;;2.70;38.10;;;;;;6211890;23;20808;-54
2021/12/29 04:02:58;;;;;;;60.90;25.00;;;2.70;40.10;;;;;;6211190;23;20385;-56
2021/12/29 04:05:24;;;;;;;66.87;25.73;;;2.70;46.70;;;;;;6208955;23;20159;-55
2021/12/29 04:07:53;;;;;;;64.30;25.83;;;2.70;60.90;;;;;;6210995;23;20185;-55
2021/12/29 04:10:18;;;;;;;65.90;24.93;;;2.70;88.70;;;;;;6210893;23;20142;-56
2021/12/29 04:12:44;;;;;;;65.03;26.20;;;2.70;98.30;;;;;;6211005;23;20563;-55
2021/12/29 04:15:11;;;;;;;68.60;25.90;;;2.70;99.90;;;;;;6210569;23;20147;-56
2021/12/29 04:17:39;;;;;;;67.30;25.70;;;2.70;99.90;;;;;;6211077;23;20142;-56
2021/12/29 04:23:06;;;;;;;65.07;25.20;;;2.80;99.90;;;;;;6211015;23;20405;-55
2021/12/29 04:25:35;;;;;;;61.07;25.33;;;2.80;99.90;;;;;;6210887;23;20387;-55
2021/12/29 04:28:03;;;;;;;69.43;26.33;;;2.70;99.90;;;;;;6211019;23;20444;-55
2021/12/29 04:30:29;;;;;;;61.47;25.13;;;2.80;99.90;;;;;;6209933;23;20388;-55
2021/12/29 04:32:54;;;;;;;65.40;25.20;;;2.80;99.90;;;;;;6209422;23;20508;-55
2021/12/29 04:35:22;;;;;;;71.67;27.10;;;2.70;99.90;;;;;;6211183;23;20605;-56
2021/12/29 04:37:47;;;;;;;65.10;24.20;;;2.80;99.90;;;;;;6209506;23;20165;-56
2021/12/29 04:40:14;;;;;;;60.10;25.47;;;2.70;99.90;;;;;;6212103;23;20480;-55
2021/12/29 04:42:39;;;;;;;56.53;24.30;;;2.70;99.90;;;;;;6210742;23;20625;-58
2021/12/29 04:45:05;;;;;;;58.00;26.23;;;2.70;99.90;;;;;;6210587;23;20405;-55
2021/12/29 04:47:31;;;;;;;57.27;23.77;;;2.70;99.90;;;;;;6210381;23;20147;-55
2021/12/29 04:50:00;;;;;;;52.00;22.00;;;2.70;99.90;;;;;;6210300;23;20386;-56
2021/12/29 04:52:29;;;;;;;57.20;23.73;;;2.70;99.90;;;;;;6209389;23;20484;-55
2021/12/29 04:54:54;;;;;;;53.83;23.40;;;2.70;99.90;;;;;;6209700;23;21220;-55
2021/12/29 04:57:20;;;;;;;54.73;22.93;;;2.70;99.90;;;;;;6209918;23;20385;-59
2021/12/29 04:59:45;;;;;;;50.90;21.53;;;2.70;99.90;;;;;;6211388;23;20557;-56
2021/12/29 05:02:11;;;;;;;54.80;23.53;;;2.80;99.90;;;;;;6209709;23;20159;-56
2021/12/29 05:04:45;;;;;;;51.77;21.40;;;2.80;99.90;;;;;;6210295;23;20147;-55
2021/12/29 05:10:04;;;;;;;52.00;21.87;;;2.80;99.90;;;;;;6175544;23;20452;-54
2021/12/29 05:12:29;;;;;;;52.93;22.60;;;2.70;99.90;;;;;;6210074;23;20448;-53
2021/12/29 05:14:55;;;;;;;50.03;21.30;;;2.80;99.90;;;;;;6208764;23;20476;-53
2021/12/29 05:17:20;;;;;;;54.73;22.50;;;2.80;99.90;;;;;;6210951;23;20222;-53
2021/12/29 05:19:46;;;;;;;63.87;24.80;;;2.80;99.90;;;;;;6209875;23;20154;-53
2021/12/29 05:22:11;;;;;;;53.17;22.40;;;2.80;99.90;;;;;;6210638;23;20166;-55
2021/12/29 05:24:38;;;;;;;62.93;23.57;;;2.80;99.90;;;;;;6210157;23;20156;-55
2021/12/29 05:27:04;;;;;;;58.50;23.77;;;2.90;99.90;;;;;;6209678;23;20150;-55
2021/12/29 05:29:29;;;;;;;55.80;23.43;;;2.90;99.90;;;;;;6209545;23;20385;-56
2021/12/29 05:31:55;;;;;;;61.80;23.87;;;2.90;99.90;;;;;;6210151;23;20225;-55
2021/12/29 05:34:21;;;;;;;55.70;21.60;;;2.90;99.90;;;;;;6210325;23;20154;-56
2021/12/29 05:36:47;;;;;;;53.83;22.40;;;2.90;99.90;;;;;;6209613;23;20934;-55
2021/12/29 05:39:12;;;;;;;48.40;21.17;;;2.90;99.90;;;;;;6209831;23;20143;-55
2021/12/29 05:41:39;;;;;;;50.70;21.43;;;2.90;99.90;;;;;;6209771;23;20139;-56
2021/12/29 05:44:05;;;;;;;53.20;22.07;;;2.80;99.90;;;;;;6210191;23;20198;-55
2021/12/29 05:46:30;;;;;;;50.23;22.67;;;2.80;99.90;;;;;;6209618;23;20743;-55
2021/12/29 05:48:56;;;;;;;50.70;21.30;;;2.80;99.90;;;;;;6211074;23;20146;-55
2021/12/29 05:51:21;;;;;;;46.40;21.73;;;2.80;99.90;;;;;;6208973;23;20202;-56
2021/12/29 05:53:47;;;;;;;56.87;24.27;;;2.80;99.90;;;;;;6209844;23;20227;-56
2021/12/29 05:56:13;;;;;;;55.60;23.37;;;2.90;99.90;;;;;;6209743;23;20573;-55
2021/12/29 05:58:39;;;;;;;54.00;21.13;;;2.80;99.90;;;;;;6210126;23;20612;-56
2021/12/29 06:01:04;;;;;;;47.23;21.50;;;2.80;99.90;;;;;;6209475;23;20146;-57
2021/12/29 06:03:30;;;;;;;48.20;21.37;;;2.80;99.90;;;;;;6210297;23;20424;-56
2021/12/29 06:05:56;;;;;;;43.00;19.63;;;2.80;99.90;;;;;;6210309;23;20209;-55
2021/12/29 06:08:21;;;;;;;41.90;19.87;;;2.80;99.90;;;;;;6209764;23;20178;-56
2021/12/29 06:10:48;;;;;;;48.73;20.57;;;2.80;99.90;;;;;;6209835;23;20154;-55
2021/12/29 06:13:13;;;;;;;59.03;23.67;;;2.80;99.90;;;;;;6209312;23;20213;-55
2021/12/29 06:15:39;;;;;;;52.33;22.53;;;2.80;99.90;;;;;;6210376;23;20803;-56
2021/12/29 06:18:05;;;;;;;50.73;21.73;;;2.80;99.90;;;;;;6209939;23;20146;-55
2021/12/29 06:20:31;;;;;;;53.30;23.10;;;2.70;99.90;;;;;;6209099;23;20154;-56
2021/12/29 06:22:56;;;;;;;53.00;21.87;;;2.80;99.90;;;;;;6210287;23;20490;-55
2021/12/29 06:25:22;;;;;;;54.30;20.97;;;2.80;99.90;;;;;;6209623;23;20444;-55
2021/12/29 06:27:48;;;;;;;54.60;20.50;;;2.80;99.90;;;;;;6209316;23;20143;-58
2021/12/29 06:30:15;;;;;;;55.83;23.03;;;2.80;99.90;;;;;;6209877;23;20147;-56
2021/12/29 06:32:41;;;;;;;55.17;21.20;;;2.80;99.90;;;;;;6209864;23;20193;-63
2021/12/29 06:35:09;;;;;;;49.90;21.27;;;2.80;99.90;;;;;;6210174;23;20863;-56
2021/12/29 06:37:34;;;;;;;54.13;20.43;;;2.80;99.90;;;;;;6183113;23;20939;-56
2021/12/29 06:40:00;;;;;;;50.57;22.80;;;2.80;99.90;;;;;;6182957;23;20425;-55
2021/12/29 06:42:25;;;;;;;56.97;23.40;;;2.70;99.90;;;;;;6208895;23;20155;-56
2021/12/29 06:44:51;;;;;;;56.00;22.10;;;2.70;99.90;;;;;;6210223;23;20153;-56
2021/12/29 06:47:17;;;;;;;59.20;24.47;;;2.70;99.90;;;;;;6183310;23;20162;-56
2021/12/29 06:49:43;;;;;;;72.03;24.93;;;2.70;99.90;;;;;;6209526;23;20241;-56
2021/12/29 06:52:09;;;;;;;59.27;23.70;;;2.70;99.90;;;;;;6209614;23;20234;-55
2021/12/29 06:54:36;;;;;;;57.57;23.60;;;2.70;99.90;;;;;;6209314;23;20381;-56
2021/12/29 06:57:03;;;;;;;61.40;24.00;;;2.70;99.90;;;;;;6209740;23;20388;-56
2021/12/29 06:59:29;;;;;;;66.73;24.10;;;2.70;99.90;;;;;;6209910;23;20812;-55
2021/12/29 07:01:55;;;;;;;55.07;22.80;;;2.70;99.90;;;;;;6210981;23;20416;-56
2021/12/29 07:04:23;;;;;;;64.13;24.17;;;2.70;99.90;;;;;;6211731;23;20582;-56
2021/12/29 07:06:49;;;;;;;57.23;24.10;;;2.70;99.90;;;;;;6210931;23;20473;-56
2021/12/29 07:09:15;;;;;;;68.70;26.67;;;2.70;99.90;;;;;;6211947;23;20370;-56
2021/12/29 07:11:40;;;;;;;63.07;24.90;;;2.70;99.90;;;;;;6210855;23;20497;-56
2021/12/29 07:14:09;;;;;;;60.80;23.53;;;2.70;99.90;;;;;;6184681;23;20256;-56
2021/12/29 07:16:35;;;;;;;55.20;24.63;;;2.70;99.90;;;;;;6211743;23;20441;-55
2021/12/29 07:19:01;;;;;;;56.37;23.60;;;2.60;99.90;;;;;;6210501;23;20674;-55
2021/12/29 07:21:26;;;;;;;64.33;25.47;;;2.70;99.90;;;;;;6211583;23;20376;-56
2021/12/29 07:23:54;;;;;;;74.93;26.87;;;2.60;99.90;;;;;;6211714;23;20234;-55
2021/12/29 07:26:21;;;;;;;74.00;27.30;;;2.60;99.90;;;;;;6211180;23;20600;-57
2021/12/29 07:28:46;;;;;;;67.53;27.00;;;2.60;99.90;;;;;;6210335;23;20373;-56
2021/12/29 07:31:12;;;;;;;64.67;26.90;;;2.70;99.90;;;;;;6184430;23;20385;-55
2021/12/29 07:33:38;;;;;;;77.90;29.50;;;2.60;99.90;;;;;;6212010;23;20182;-56
2021/12/29 07:36:03;;;;;;;74.30;28.40;;;2.60;99.90;;;;;;6211960;23;20161;-56
2021/12/29 07:38:29;;;;;;;69.87;26.10;;;2.60;99.90;;;;;;6209850;23;20583;-56
2021/12/29 07:40:54;;;;;;;63.20;24.90;;;2.60;99.90;;;;;;6210566;23;20169;-56
2021/12/29 07:43:21;;;;;;;76.40;27.83;;;2.60;99.90;;;;;;6211521;23;20170;-56
2021/12/29 07:45:46;;;;;;;69.13;28.67;;;2.60;99.90;;;;;;6212105;23;20147;-56
2021/12/29 07:48:12;;;;;;;74.90;28.67;;;2.60;99.90;;;;;;6211045;23;20411;-56
2021/12/29 07:50:39;;;;;;;63.50;26.27;;;2.60;99.90;;;;;;6210527;23;20202;-55
2021/12/29 07:53:05;;;;;;;78.13;29.60;;;2.60;99.90;;;;;;6210045;23;20280;-56
2021/12/29 07:55:31;;;;;;;74.27;26.90;;;2.60;99.90;;;;;;6211802;23;20806;-56
2021/12/29 07:57:58;;;;;;;80.53;28.60;;;2.60;99.90;;;;;;6211423;23;20366;-56
2021/12/29 08:00:24;;;;;;;75.83;26.37;;;2.60;99.90;;;;;;6210929;23;20496;-55
2021/12/29 08:02:51;;;;;;;80.03;28.90;;;2.60;99.90;;;;;;6210053;23;20370;-56
2021/12/29 08:05:16;;;;;;;77.80;28.77;;;2.60;99.90;;;;;;6211229;23;20448;-56
2021/12/29 08:07:42;;;;;;;76.77;27.80;;;2.60;99.90;;;;;;6210732;23;20370;-56
2021/12/29 08:10:08;;;;;;;76.27;27.70;;;2.60;99.90;;;;;;6210543;23;20187;-56
2021/12/29 08:12:34;;;;;;;88.10;28.47;;;2.70;99.90;;;;;;6211169;23;20466;-56
2021/12/29 08:14:59;;;;;;;75.43;28.10;;;2.70;99.90;;;;;;6210049;23;20453;-56
2021/12/29 08:17:25;;;;;;;76.87;28.90;;;2.70;99.90;;;;;;6211004;23;20162;-56
2021/12/29 08:19:51;;;;;;;73.23;29.20;;;2.70;99.90;;;;;;6209937;23;20147;-56
2021/12/29 08:22:17;;;;;;;95.30;30.47;;;2.70;99.90;;;;;;6210260;23;20228;-55
2021/12/29 08:24:43;;;;;;;72.50;28.77;;;2.70;99.90;;;;;;6210488;23;20427;-56
2021/12/29 08:27:11;;;;;;;73.07;27.80;;;2.70;99.90;;;;;;6209996;23;20460;-55
2021/12/29 08:29:36;;;;;;;78.60;29.33;;;2.70;99.90;;;;;;6210828;23;20189;-56
2021/12/29 08:32:04;;;;;;;77.17;27.27;;;2.70;99.90;;;;;;6209726;23;20370;-55
2021/12/29 08:34:29;;;;;;;84.47;28.80;;;2.70;99.90;;;;;;6211088;23;20149;-56
2021/12/29 08:36:55;;;;;;;79.27;28.50;;;2.70;99.90;;;;;;6210128;23;20472;-55
2021/12/29 08:39:21;;;;;;;83.90;29.20;;;2.70;99.90;;;;;;6210900;23;20149;-56
2021/12/29 08:41:48;;;;;;;87.37;30.03;;;2.70;99.90;;;;;;6210814;23;20385;-56
2021/12/29 08:44:14;;;;;;;87.87;29.43;;;2.80;99.90;;;;;;6210710;23;20143;-63
2021/12/29 08:46:40;;;;;;;82.47;30.10;;;2.80;99.90;;;;;;6210805;23;20420;-56
2021/12/29 08:49:06;;;;;;;71.23;26.70;;;2.90;99.90;;;;;;6184032;23;20409;-55
2021/12/29 08:51:32;;;;;;;82.57;28.83;;;2.90;99.90;;;;;;6210499;23;20847;-56
2021/12/29 08:53:57;;;;;;;71.77;27.63;;;2.90;99.90;;;;;;6183865;23;20456;-56
2021/12/29 08:56:24;;;;;;;71.90;26.10;;;2.90;99.90;;;;;;6210330;23;20173;-56
2021/12/29 08:58:50;;;;;;;77.93;28.40;;;3.00;99.90;;;;;;6210283;23;21079;-55
2021/12/29 09:01:17;;;;;;;81.27;29.80;;;3.00;99.90;;;;;;6210400;23;20389;-55
2021/12/29 09:03:43;;;;;;;82.30;29.17;;;3.00;99.90;;;;;;6210813;23;20389;-54
2021/12/29 09:06:09;;;;;;;79.90;28.63;;;3.00;99.90;;;;;;6209755;23;20390;-56
2021/12/29 09:08:35;;;;;;;81.17;28.47;;;3.10;99.90;;;;;;6210578;23;20372;-55
2021/12/29 09:11:00;;;;;;;78.93;29.40;;;3.10;99.90;;;;;;6209953;23;20425;-56
2021/12/29 09:13:26;;;;;;;84.97;29.90;;;3.10;99.90;;;;;;6210269;23;20668;-55
2021/12/29 09:15:56;;;;;;;84.87;28.33;;;3.10;99.90;;;;;;6210299;23;20537;-57
2021/12/29 09:18:26;;;;;;;83.97;29.27;;;3.10;99.90;;;;;;6205648;23;20166;-57
2021/12/29 09:20:52;;;;;;;76.20;26.70;;;3.20;99.90;;;;;;6206088;23;20373;-57
2021/12/29 09:23:19;;;;;;;81.33;29.43;;;3.20;99.90;;;;;;6206709;23;20412;-63
2021/12/29 09:25:47;;;;;;;79.93;28.83;;;3.20;99.90;;;;;;6206052;23;20385;-57
2021/12/29 09:28:15;;;;;;;72.13;28.10;;;3.20;99.90;;;;;;6206962;23;20806;-57
2021/12/29 09:30:43;;;;;;;86.53;30.00;;;3.20;99.90;;;;;;6205783;23;20449;-57
2021/12/29 09:33:09;;;;;;;86.37;28.47;;;3.20;99.90;;;;;;6206623;23;21020;-61
2021/12/29 09:35:36;;;;;;;83.27;29.47;;;3.20;99.90;;;;;;6206353;23;20429;-57
2021/12/29 09:38:04;;;;;;;69.47;27.30;;;3.20;99.90;;;;;;6206817;23;20382;-57
2021/12/29 09:40:30;;;;;;;84.63;27.37;;;3.30;99.90;;;;;;6205544;23;21122;-57
2021/12/29 09:42:56;;;;;;;85.57;29.50;;;3.30;99.90;;;;;;6207460;23;20370;-57
2021/12/29 09:45:23;;;;;;;80.50;28.10;;;3.30;99.90;;;;;;6206881;23;20190;-57
2021/12/29 09:47:49;;;;;;;69.03;26.40;;;3.30;99.90;;;;;;6206616;23;20369;-61
2021/12/29 09:50:18;;;;;;;80.43;28.00;;;3.30;99.90;;;;;;6205761;23;20444;-57
2021/12/29 09:52:43;;;;;;;72.43;27.27;;;3.30;99.90;;;;;;6206170;23;20170;-57
2021/12/29 09:55:14;;;;;;;83.00;32.30;;;3.30;99.90;;;;;;6177576;23;20460;-57
2021/12/29 09:57:44;;;;;;;74.07;26.50;;;3.30;99.90;;;;;;6206268;23;20362;-56
2021/12/29 10:00:22;;;;;;;74.30;27.03;;;3.30;99.90;;;;;;6206430;23;20377;-57
2021/12/29 10:02:48;;;;;;;72.83;27.93;;;3.40;99.90;;;;;;6206364;23;20380;-58
2021/12/29 10:05:14;;;;;;;76.00;25.07;;;3.40;99.90;;;;;;6205564;23;20386;-57
2021/12/29 10:07:40;;;;;;;73.13;25.63;;;3.40;99.90;;;;;;6207433;23;20182;-56
2021/12/29 10:10:20;;;;;;;71.33;25.40;;;3.50;99.90;;;;;;6206120;23;20883;-57
2021/12/29 10:12:46;;;;;;;85.90;28.77;;;3.40;99.90;;;;;;6206819;23;20269;-57
2021/12/29 10:15:13;;;;;;;80.33;27.20;;;3.50;99.90;;;;;;6207409;23;20923;-57
2021/12/29 10:17:38;;;;;;;78.60;26.23;;;3.50;99.90;;;;;;6204461;23;20540;-57
2021/12/29 10:20:13;;;;;;;88.80;31.30;;;3.50;99.90;;;;;;6204485;23;21182;-58
2021/12/29 10:22:39;;;;;;;81.83;27.80;;;3.50;99.90;;;;;;6206173;23;20524;-58
2021/12/29 10:25:15;;;;;;;80.73;29.40;;;3.50;99.90;;;;;;6204110;23;20421;-55
2021/12/29 10:27:41;;;;;;;90.23;29.97;;;3.60;99.90;;;;;;6206721;23;20714;-57
2021/12/29 10:30:22;;;;;;;89.60;27.63;;;3.60;99.90;;;;;;6206374;23;20366;-56
2021/12/29 10:32:48;;;;;;;82.77;28.07;;;3.60;99.90;;;;;;6205896;23;20433;-55
2021/12/29 10:35:23;;;;;;;77.70;28.77;;;3.60;99.90;;;;;;6207024;23;20377;-56
2021/12/29 10:37:52;;;;;;;91.63;29.57;;;3.60;99.90;;;;;;6206829;23;20441;-55
2021/12/29 10:40:45;;;;;;;79.43;28.60;;;3.60;99.90;;;;;;6181883;23;20389;-55
2021/12/29 10:43:11;;;;;;;93.73;29.50;;;3.60;99.90;;;;;;6204387;23;20501;-56
2021/12/29 10:45:40;;;;;;;78.50;27.90;;;3.70;99.90;;;;;;6208374;23;20373;-57
2021/12/29 10:48:23;;;;;;;78.00;27.00;;;3.70;99.90;;;;;;6208511;23;20381;-56
2021/12/29 10:51:02;;;;;;;83.17;28.23;;;3.80;99.90;;;;;;6207368;23;20437;-56
2021/12/29 10:53:30;;;;;;;88.07;31.77;;;3.80;99.90;;;;;;6207383;23;20405;-56
2021/12/29 10:55:55;;;;;;;80.87;29.03;;;3.90;99.90;;;;;;6181246;23;20166;-58
2021/12/29 10:58:25;;;;;;;80.57;29.37;;;3.80;99.90;;;;;;6206481;23;20469;-58
2021/12/29 11:01:02;;;;;;;78.23;27.70;;;3.80;99.90;;;;;;6200865;23;20202;-57
2021/12/29 11:03:30;;;;;;;72.60;28.43;;;3.80;99.90;;;;;;6205353;23;20854;-57
2021/12/29 11:05:59;;;;;;;71.40;26.00;;;3.90;99.90;;;;;;6208466;23;20830;-58
2021/12/29 11:08:32;;;;;;;79.67;27.27;;;3.80;99.90;;;;;;6207492;23;20373;-60
2021/12/29 11:11:05;;;;;;;77.23;27.73;;;3.80;99.90;;;;;;6207157;23;20403;-57
2021/12/29 11:13:31;;;;;;;81.50;28.80;;;3.90;99.90;;;;;;6206411;23;20417;-58
2021/12/29 11:15:58;;;;;;;78.33;30.20;;;3.90;99.90;;;;;;6206569;23;20400;-57
2021/12/29 11:18:26;;;;;;;81.23;28.67;;;3.90;99.90;;;;;;6207396;23;20691;-58
2021/12/29 11:20:57;;;;;;;80.80;26.90;;;4.00;99.90;;;;;;6206838;23;20377;-58
2021/12/29 11:23:23;;;;;;;73.13;26.77;;;4.00;99.90;;;;;;6206953;23;20816;-59
2021/12/29 11:25:51;;;;;;;80.20;29.83;;;4.00;99.90;;;;;;6180686;23;20400;-58
2021/12/29 11:28:28;;;;;;;77.93;25.53;;;4.00;99.90;;;;;;6206738;23;20165;-57
2021/12/29 11:30:57;;;;;;;81.00;29.83;;;4.10;99.90;;;;;;6205699;23;20396;-58
2021/12/29 11:33:23;;;;;;;75.33;28.57;;;4.10;99.90;;;;;;6206915;23;20436;-57
2021/12/29 11:35:52;;;;;;;76.47;27.13;;;4.10;99.90;;;;;;6207067;23;20374;-56
2021/12/29 11:38:20;;;;;;;78.20;29.30;;;4.10;99.90;;;;;;6206660;23;20965;-58
2021/12/29 11:41:00;;;;;;;74.27;26.47;;;4.10;99.90;;;;;;6207222;23;20378;-58
2021/12/29 11:43:26;;;;;;;83.30;28.17;;;4.10;99.90;;;;;;6206017;23;20468;-58
2021/12/29 11:45:53;;;;;;;68.10;28.20;;;4.20;99.90;;;;;;6206455;23;20506;-58
2021/12/29 11:48:21;;;;;;;75.90;28.30;;;4.10;99.90;;;;;;6206805;23;20189;-58
2021/12/29 11:50:56;;;;;;;82.30;30.00;;;4.20;99.90;;;;;;6206096;23;20911;-56
2021/12/29 11:53:43;;;;;;;82.03;29.90;;;4.20;99.90;;;;;;6206960;23;20419;-63
2021/12/29 11:56:14;;;;;;;73.93;29.80;;;4.20;99.90;;;;;;6205573;23;20394;-56
2021/12/29 11:58:42;;;;;;;67.97;25.97;;;4.30;99.90;;;;;;6207313;23;20361;-56
2021/12/29 12:01:09;;;;;;;70.17;28.73;;;4.20;99.90;;;;;;6205210;23;20366;-57
2021/12/29 12:03:44;;;;;;;67.83;27.20;;;4.20;99.90;;;;;;6179217;23;20910;-62
2021/12/29 12:06:39;;;;;;;65.10;26.00;;;4.20;99.90;;;;;;6207048;23;20453;-57
2021/12/29 12:09:15;;;;;;;73.07;27.47;;;4.20;99.90;;;;;;6206658;23;20820;-56
2021/12/29 12:11:56;;;;;;;72.07;27.50;;;4.20;99.90;;;;;;6206454;23;20373;-56
2021/12/29 12:14:27;;;;;;;78.68;33.45;;;4.20;99.90;;;;;;6204946;23;20476;-63
2021/12/29 12:17:05;;;;;;;74.63;28.87;;;4.20;99.90;;;;;;6205864;23;20163;-57
2021/12/29 12:19:31;;;;;;;84.80;30.73;;;4.20;99.90;;;;;;6206835;23;20481;-57
2021/12/29 12:22:09;;;;;;;79.97;28.90;;;4.20;99.90;;;;;;6205735;23;20400;-57
2021/12/29 12:24:37;;;;;;;76.20;29.33;;;4.20;99.90;;;;;;6208848;23;20460;-57
2021/12/29 12:27:23;;;;;;;81.43;31.13;;;4.20;99.90;;;;;;6208660;23;20385;-57
2021/12/29 12:30:01;;;;;;;70.50;27.80;;;4.20;99.90;;;;;;6208568;23;20374;-57
2021/12/29 12:32:27;;;;;;;81.83;30.17;;;4.20;99.90;;;;;;6205864;23;20417;-60
2021/12/29 12:35:01;;;;;;;83.57;28.97;;;4.20;99.90;;;;;;6206543;23;20373;-56
2021/12/29 12:37:45;;;;;;;82.63;31.07;;;4.20;99.90;;;;;;6208275;23;20146;-57
2021/12/29 12:40:23;;;;;;;83.83;29.80;;;4.20;99.90;;;;;;6207987;23;20496;-57
2021/12/29 12:43:02;;;;;;;91.00;32.33;;;4.20;99.90;;;;;;6207207;23;20366;-57
2021/12/29 12:45:35;;;;;;;96.17;31.53;;;4.20;99.90;;;;;;6207319;23;20373;-57
2021/12/29 12:48:15;;;;;;;98.30;33.17;;;4.30;99.90;;;;;;6208336;23;20682;-57
2021/12/29 12:50:43;;;;;;;102.53;32.70;;;4.20;99.90;;;;;;6205991;23;20911;-57
2021/12/29 12:53:10;;;;;;;100.73;32.23;;;4.30;99.90;;;;;;6205290;23;20534;-57
2021/12/29 12:55:49;;;;;;;96.53;29.80;;;4.20;99.90;;;;;;6206175;23;20734;-57
2021/12/29 12:58:17;;;;;;;101.87;33.57;;;4.30;99.90;;;;;;6205870;23;20824;-58
2021/12/29 13:00:53;;;;;;;94.73;31.90;;;4.30;99.90;;;;;;6206245;23;20414;-58
2021/12/29 13:03:23;;;;;;;100.60;31.87;;;4.30;99.90;;;;;;6207408;23;20380;-59
2021/12/29 13:05:55;;;;;;;102.00;33.40;;;4.30;99.90;;;;;;6207176;23;20397;-58
2021/12/29 13:08:23;;;;;;;103.23;32.07;;;4.30;99.90;;;;;;6207033;23;20377;-59
2021/12/29 13:10:50;;;;;;;87.47;30.53;;;4.30;99.90;;;;;;6207746;23;20485;-57
2021/12/29 13:13:20;;;;;;;107.17;32.70;;;4.30;99.90;;;;;;6206859;23;20428;-58
2021/12/29 13:15:50;;;;;;;82.07;28.40;;;4.30;99.90;;;;;;6207591;23;20408;-58
2021/12/29 13:18:16;;;;;;;92.90;28.70;;;4.40;99.90;;;;;;6207047;23;20369;-58
2021/12/29 13:20:45;;;;;;;84.00;30.00;;;4.40;99.90;;;;;;6206863;23;20902;-58
2021/12/29 13:23:15;;;;;;;77.27;26.40;;;4.40;99.90;;;;;;6206686;23;20381;-56
2021/12/29 13:25:42;;;;;;;85.53;27.20;;;4.30;99.90;;;;;;6207400;23;20447;-58
2021/12/29 13:28:13;;;;;;;83.70;27.37;;;4.30;99.90;;;;;;6207257;23;20388;-57
2021/12/29 13:30:49;;;;;;;92.47;29.80;;;4.30;99.90;;;;;;6206495;23;20370;-58
2021/12/29 13:33:17;;;;;;;99.35;35.60;;;4.30;99.90;;;;;;6206197;23;20394;-58
2021/12/29 13:35:46;;;;;;;95.87;32.87;;;4.20;99.90;;;;;;6207141;23;20537;-55
2021/12/29 13:38:17;;;;;;;88.70;29.10;;;4.20;99.90;;;;;;6207011;23;20445;-58
2021/12/29 13:40:47;;;;;;;81.37;29.90;;;4.30;99.90;;;;;;6207282;23;20448;-58
2021/12/29 13:43:16;;;;;;;78.50;28.47;;;4.30;99.90;;;;;;6207217;23;20394;-58
2021/12/29 13:45:42;;;;;;;81.83;29.47;;;4.30;99.90;;;;;;6207942;23;20393;-58
2021/12/29 13:48:17;;;;;;;83.27;28.00;;;4.30;99.90;;;;;;6207742;23;20377;-59
2021/12/29 13:51:02;;;;;;;84.17;28.83;;;4.20;99.90;;;;;;6207745;23;20204;-58
2021/12/29 13:53:29;;;;;;;80.93;28.33;;;4.20;99.90;;;;;;6206325;23;20453;-64
2021/12/29 13:55:56;;;;;;;93.53;29.50;;;4.20;99.90;;;;;;6205168;23;20382;-59
2021/12/29 13:58:24;;;;;;;83.90;27.73;;;4.30;99.90;;;;;;6205987;23;20353;-58
2021/12/29 14:00:49;;;;;;;84.00;29.97;;;4.30;99.90;;;;;;6207105;23;20362;-58
2021/12/29 14:03:15;;;;;;;89.53;28.23;;;4.30;99.90;;;;;;6207267;23;20396;-58
2021/12/29 14:05:45;;;;;;;71.03;26.20;;;4.30;99.90;;;;;;6207020;23;20229;-59
2021/12/29 14:08:20;;;;;;;69.17;27.00;;;4.30;99.90;;;;;;6206409;23;20162;-58
2021/12/29 14:10:47;;;;;;;68.50;24.93;;;4.30;99.90;;;;;;6208719;23;20369;-58
2021/12/29 14:13:20;;;;;;;78.10;24.97;;;4.30;99.90;;;;;;6209198;23;20425;-58
2021/12/29 14:15:48;;;;;;;72.77;27.87;;;4.30;99.90;;;;;;6208946;23;20392;-58
2021/12/29 14:18:23;;;;;;;73.20;26.77;;;4.40;99.90;;;;;;6208436;23;20365;-59
2021/12/29 14:20:54;;;;;;;68.17;24.97;;;4.40;99.90;;;;;;6209110;23;20680;-58
2021/12/29 14:23:28;;;;;;;69.40;25.70;;;4.40;99.90;;;;;;6207412;23;20650;-58
2021/12/29 14:25:54;;;;;;;72.17;25.83;;;4.40;99.90;;;;;;6206871;23;20420;-58
2021/12/29 14:28:22;;;;;;;59.03;22.23;;;4.40;99.90;;;;;;6207552;23;20472;-59
2021/12/29 14:31:09;;;;;;;69.67;26.47;;;4.50;99.90;;;;;;6206543;23;20162;-58
2021/12/29 14:33:41;;;;;;;67.40;25.07;;;4.50;99.90;;;;;;6206538;23;20588;-59
2021/12/29 14:36:09;;;;;;;68.50;25.97;;;4.50;99.90;;;;;;6207625;23;20361;-59
2021/12/29 14:38:35;;;;;;;65.07;23.93;;;4.50;99.90;;;;;;6207472;23;20699;-59